Terminal Aerodrome Forecast
Issued by NWS

Home | Current Version | Previous Version | Graphics & Text | Print | Product List | Glossary On
Versions: 1 2 3 4 5 6 7 8 9 10 11 12 13 14 15 16 17 18 19 20 21 22 23 24
096
FTUS43 KBIS 221127
TAFDIK
TAF
KDIK 221127Z 2212/2312 10009KT P6SM SCT110 SCT200
     FM221700 10011KT P6SM BKN120
     FM222100 10014G20KT P6SM BKN150
     FM230000 11015G21KT P6SM -SHRA VCTS SCT090CB
     FM230600 13015G21KT P6SM BKN090=

USA.gov is the U.S. government's official web portal to all federal, state and local government web resources and services.